createdAt,value
2023-05-07T00:00:13.508Z,99.99
2023-05-07T00:01:13.302Z,99.99
2023-05-07T00:02:13.351Z,99.99
2023-05-07T00:03:13.410Z,99.99
2023-05-07T00:04:13.520Z,99.99
2023-05-07T00:05:13.404Z,99.99
2023-05-07T00:06:13.123Z,99.99
2023-05-07T00:07:13.088Z,99.99
2023-05-07T00:08:13.058Z,99.99
2023-05-07T00:09:13.091Z,99.99
2023-05-07T00:10:13.182Z,99.99
2023-05-07T00:11:12.950Z,99.99
2023-05-07T00:12:12.911Z,99.99
2023-05-07T00:13:12.913Z,99.99
2023-05-07T00:14:12.929Z,99.99
2023-05-07T00:15:12.985Z,99.99
2023-05-07T00:16:12.814Z,99.99
2023-05-07T00:17:12.745Z,99.59
2023-05-07T00:18:12.720Z,99.54
2023-05-07T00:19:12.742Z,99.95
2023-05-07T00:20:12.970Z,99.85
2023-05-07T00:21:12.625Z,99.65
2023-05-07T00:22:12.572Z,99.85
2023-05-07T00:23:12.538Z,99.95
2023-05-07T00:24:12.500Z,99.75
2023-05-07T00:25:12.488Z,99.99
2023-05-07T00:26:12.502Z,99.99
2023-05-07T00:27:12.407Z,99.99
2023-05-07T00:28:12.405Z,99.75
2023-05-07T00:29:12.350Z,99.75
2023-05-07T00:30:12.540Z,99.99
2023-05-07T00:31:12.268Z,99.75
2023-05-07T00:32:12.347Z,99.54
2023-05-07T00:33:12.211Z,99.24
2023-05-07T00:34:12.205Z,98.83
2023-05-07T00:35:12.451Z,98.93
2023-05-07T00:36:12.124Z,98.52
2023-05-07T00:37:12.142Z,99.24
2023-05-07T00:38:12.043Z,98.93
2023-05-07T00:39:12.017Z,98.93
2023-05-07T00:40:12.122Z,98.93
2023-05-07T00:41:11.932Z,98.72
2023-05-07T00:42:11.920Z,98.68
2023-05-07T00:43:11.921Z,98.11
2023-05-07T00:44:11.858Z,98.42
2023-05-07T00:45:11.832Z,98.62
2023-05-07T00:46:11.818Z,99.03
2023-05-07T00:47:11.725Z,98.62
2023-05-07T00:48:11.716Z,98.93
2023-05-07T00:49:11.722Z,98.58
2023-05-07T00:50:11.829Z,98.93
2023-05-07T00:51:11.694Z,98.62
2023-05-07T00:52:11.559Z,98.72
2023-05-07T00:53:11.531Z,99.03
2023-05-07T00:54:11.520Z,98.16
2023-05-07T00:55:12.503Z,98.78
2023-05-07T00:56:11.442Z,98.16
2023-05-07T00:57:11.408Z,98.11
2023-05-07T00:58:11.360Z,98.00
2023-05-07T00:59:11.355Z,97.86
2023-05-07T01:00:11.415Z,98.37
2023-05-07T01:01:11.366Z,98.07
2023-05-07T01:02:11.218Z,97.86
2023-05-07T01:03:11.206Z,97.86
2023-05-07T01:04:11.173Z,97.91
2023-05-07T01:05:11.129Z,98.21
2023-05-07T01:06:11.089Z,97.86
2023-05-07T01:07:11.155Z,97.91
2023-05-07T01:08:11.017Z,97.91
2023-05-07T01:09:10.989Z,97.80
2023-05-07T01:10:11.155Z,97.75
2023-05-07T01:11:10.935Z,98.21
2023-05-07T01:12:10.958Z,98.42
2023-05-07T01:13:10.939Z,98.37
2023-05-07T01:14:10.835Z,97.96
2023-05-07T01:15:10.819Z,97.96
2023-05-07T01:16:10.893Z,98.16
2023-05-07T01:17:10.778Z,98.07
2023-05-07T01:18:10.803Z,97.60
2023-05-07T01:19:10.666Z,98.21
2023-05-07T01:20:10.768Z,97.70
2023-05-07T01:21:10.622Z,97.80
2023-05-07T01:22:10.548Z,97.60
2023-05-07T01:23:10.525Z,97.75
2023-05-07T01:24:10.550Z,97.75
2023-05-07T01:25:10.454Z,97.75
2023-05-07T01:26:10.458Z,98.21
2023-05-07T01:27:10.390Z,97.70
2023-05-07T01:28:10.411Z,97.70
2023-05-07T01:29:10.383Z,97.96
2023-05-07T01:30:10.441Z,97.65
2023-05-07T01:31:10.264Z,97.91
2023-05-07T01:32:10.232Z,98.00
2023-05-07T01:33:10.196Z,97.75
2023-05-07T01:34:10.154Z,97.70
2023-05-07T01:35:10.204Z,97.45
2023-05-07T01:36:10.123Z,97.55
2023-05-07T01:37:10.048Z,97.19
2023-05-07T01:38:10.021Z,97.39
2023-05-07T01:39:10.168Z,97.24
2023-05-07T01:40:10.033Z,97.04
2023-05-07T01:41:10.014Z,96.94
2023-05-07T01:42:09.875Z,97.65
2023-05-07T01:43:09.834Z,97.08
2023-05-07T01:44:09.853Z,97.39
2023-05-07T01:45:09.779Z,97.24
2023-05-07T01:46:09.810Z,97.19
2023-05-07T01:47:09.706Z,97.24
2023-05-07T01:48:09.666Z,97.19
2023-05-07T01:49:09.639Z,97.39
2023-05-07T01:50:10.206Z,97.29
2023-05-07T01:51:09.632Z,97.29
2023-05-07T01:52:09.540Z,97.39
2023-05-07T01:53:09.522Z,97.19
2023-05-07T01:54:09.515Z,97.49
2023-05-07T01:55:09.484Z,97.19
2023-05-07T01:56:09.485Z,97.39
2023-05-07T01:57:09.374Z,97.39
2023-05-07T01:58:09.355Z,97.19
2023-05-07T01:59:09.308Z,97.39
2023-05-07T02:00:09.528Z,97.39
2023-05-07T02:01:09.286Z,97.49
2023-05-07T02:02:09.372Z,97.39
2023-05-07T02:03:09.301Z,97.34
2023-05-07T02:04:09.287Z,97.39
2023-05-07T02:05:09.106Z,97.45
2023-05-07T02:06:09.058Z,97.34
2023-05-07T02:07:09.087Z,97.34
2023-05-07T02:08:08.996Z,97.55
2023-05-07T02:09:09.426Z,97.29
2023-05-07T02:10:09.183Z,96.73
2023-05-07T02:11:08.939Z,97.08
2023-05-07T02:12:09.009Z,97.39
2023-05-07T02:13:08.850Z,97.24
2023-05-07T02:14:08.793Z,97.24
2023-05-07T02:15:08.769Z,97.04
2023-05-07T02:16:08.754Z,97.34
2023-05-07T02:17:08.739Z,97.34
2023-05-07T02:18:08.668Z,97.08
2023-05-07T02:19:08.632Z,97.08
2023-05-07T02:20:08.790Z,97.29
2023-05-07T02:21:08.573Z,96.57
2023-05-07T02:22:08.587Z,96.98
2023-05-07T02:23:08.494Z,96.57
2023-05-07T02:24:08.462Z,96.22
2023-05-07T02:25:08.428Z,96.53
2023-05-07T02:26:08.389Z,97.08
2023-05-07T02:27:08.415Z,96.88
2023-05-07T02:28:08.327Z,96.83
2023-05-07T02:29:08.347Z,96.67
2023-05-07T02:30:08.257Z,97.34
2023-05-07T02:31:08.224Z,96.42
2023-05-07T02:32:08.285Z,97.04
2023-05-07T02:33:08.212Z,96.73
2023-05-07T02:34:08.189Z,97.34
2023-05-07T02:35:08.091Z,96.83
2023-05-07T02:36:08.062Z,96.32
2023-05-07T02:37:08.023Z,96.32
2023-05-07T02:38:08.008Z,96.78
2023-05-07T02:39:07.955Z,96.42
2023-05-07T02:40:08.093Z,96.53
2023-05-07T02:41:07.938Z,96.22
2023-05-07T02:42:07.853Z,96.37
2023-05-07T02:43:07.823Z,96.57
2023-05-07T02:44:07.792Z,96.47
2023-05-07T02:45:07.768Z,96.57
2023-05-07T02:46:07.858Z,96.16
2023-05-07T02:47:07.682Z,96.37
2023-05-07T02:48:07.759Z,96.37
2023-05-07T02:49:07.608Z,96.06
2023-05-07T02:50:07.594Z,96.37
2023-05-07T02:51:07.541Z,96.16
2023-05-07T02:52:07.575Z,96.26
2023-05-07T02:53:07.478Z,96.57
2023-05-07T02:54:07.449Z,96.37
2023-05-07T02:55:07.412Z,95.95
2023-05-07T02:56:07.386Z,96.37
2023-05-07T02:57:07.341Z,96.06
2023-05-07T02:58:07.363Z,95.86
2023-05-07T02:59:07.397Z,95.70
2023-05-07T03:00:07.244Z,95.54
2023-05-07T03:01:07.319Z,95.44
2023-05-07T03:02:07.178Z,95.54
2023-05-07T03:03:07.340Z,95.54
2023-05-07T03:04:07.176Z,95.86
2023-05-07T03:05:07.067Z,94.42
2023-05-07T03:06:07.053Z,95.40
2023-05-07T03:07:07.065Z,94.93
2023-05-07T03:08:06.971Z,95.24
2023-05-07T03:09:06.959Z,95.24
2023-05-07T03:10:06.896Z,94.93
2023-05-07T03:11:06.862Z,94.62
2023-05-07T03:12:06.934Z,94.93
2023-05-07T03:13:07.034Z,94.93
2023-05-07T03:14:06.780Z,94.83
2023-05-07T03:15:06.783Z,94.52
2023-05-07T03:16:06.796Z,95.34
2023-05-07T03:17:06.665Z,94.73
2023-05-07T03:18:06.843Z,94.62
2023-05-07T03:19:06.647Z,95.03
2023-05-07T03:20:06.604Z,95.03
2023-05-07T03:21:06.531Z,95.24
2023-05-07T03:22:06.499Z,94.93
2023-05-07T03:23:06.484Z,94.73
2023-05-07T03:24:06.486Z,94.52
2023-05-07T03:25:06.391Z,95.44
2023-05-07T03:26:06.362Z,94.52
2023-05-07T03:27:06.311Z,94.42
2023-05-07T03:28:06.306Z,95.14
2023-05-07T03:29:06.256Z,94.68
2023-05-07T03:30:06.269Z,95.14
2023-05-07T03:31:06.294Z,94.73
2023-05-07T03:32:06.143Z,95.14
2023-05-07T03:33:06.199Z,94.93
2023-05-07T03:34:06.122Z,95.24
2023-05-07T03:35:06.048Z,95.03
2023-05-07T03:36:06.054Z,94.83
2023-05-07T03:37:05.995Z,95.14
2023-05-07T03:38:05.954Z,94.93
2023-05-07T03:39:05.914Z,95.50
2023-05-07T03:40:05.874Z,95.50
2023-05-07T03:41:05.844Z,95.29
2023-05-07T03:42:05.967Z,94.68
2023-05-07T03:43:05.778Z,94.93
2023-05-07T03:44:05.755Z,94.78
2023-05-07T03:45:05.707Z,94.89
2023-05-07T03:46:05.678Z,94.89
2023-05-07T03:47:05.686Z,94.83
2023-05-07T03:48:05.627Z,94.73
2023-05-07T03:49:05.573Z,95.44
2023-05-07T03:50:05.539Z,94.62
2023-05-07T03:51:05.500Z,95.03
2023-05-07T03:52:05.484Z,94.73
2023-05-07T03:53:05.503Z,94.83
2023-05-07T03:54:05.402Z,94.93
2023-05-07T03:55:05.386Z,95.29
2023-05-07T03:56:05.334Z,95.34
2023-05-07T03:57:05.376Z,95.20
2023-05-07T03:58:05.279Z,94.58
2023-05-07T03:59:05.296Z,94.48
2023-05-07T04:00:05.208Z,95.24
2023-05-07T04:01:05.289Z,94.89
2023-05-07T04:02:05.817Z,94.48
2023-05-07T04:03:05.375Z,94.99
2023-05-07T04:04:05.166Z,94.99
2023-05-07T04:05:05.084Z,94.17
2023-05-07T04:06:05.857Z,94.48
2023-05-07T04:07:04.966Z,94.99
2023-05-07T04:08:04.941Z,93.80
2023-05-07T04:09:04.910Z,93.80
2023-05-07T04:10:04.880Z,94.42
2023-05-07T04:11:04.886Z,94.58
2023-05-07T04:12:04.801Z,94.48
2023-05-07T04:13:04.828Z,94.78
2023-05-07T04:14:04.740Z,94.17
2023-05-07T04:15:04.711Z,94.07
2023-05-07T04:16:04.682Z,94.07
2023-05-07T04:17:04.729Z,94.07
2023-05-07T04:18:04.625Z,94.17
2023-05-07T04:19:04.622Z,94.68
2023-05-07T04:20:04.588Z,94.58
2023-05-07T04:21:04.492Z,94.68
2023-05-07T04:22:04.517Z,94.99
2023-05-07T04:23:04.431Z,93.96
2023-05-07T04:24:04.398Z,93.86
2023-05-07T04:25:04.358Z,94.17
2023-05-07T04:26:04.322Z,94.07
2023-05-07T04:27:04.300Z,94.99
2023-05-07T04:28:04.317Z,94.78
2023-05-07T04:29:04.278Z,94.78
2023-05-07T04:30:04.190Z,94.58
2023-05-07T04:31:04.229Z,95.29
2023-05-07T04:32:04.346Z,94.58
2023-05-07T04:33:04.160Z,94.17
2023-05-07T04:34:04.123Z,93.96
2023-05-07T04:35:04.084Z,94.17
2023-05-07T04:36:03.992Z,94.07
2023-05-07T04:37:03.962Z,93.92
2023-05-07T04:38:03.918Z,94.27
2023-05-07T04:39:03.889Z,93.82
2023-05-07T04:40:03.946Z,93.71
2023-05-07T04:41:04.316Z,94.27
2023-05-07T04:42:03.798Z,93.96
2023-05-07T04:43:03.788Z,93.86
2023-05-07T04:44:03.808Z,93.66
2023-05-07T04:45:03.737Z,93.82
2023-05-07T04:46:03.769Z,94.02
2023-05-07T04:47:03.683Z,93.76
2023-05-07T04:48:03.602Z,94.17
2023-05-07T04:49:03.747Z,93.92
2023-05-07T04:50:03.725Z,94.17
2023-05-07T04:51:03.705Z,93.82
2023-05-07T04:52:03.514Z,93.96
2023-05-07T04:53:03.422Z,94.17
2023-05-07T04:54:03.380Z,93.82
2023-05-07T04:55:03.368Z,93.20
2023-05-07T04:56:03.318Z,93.82
2023-05-07T04:57:03.285Z,94.12
2023-05-07T04:58:03.320Z,94.02
2023-05-07T04:59:03.221Z,93.20
2023-05-07T05:00:03.198Z,92.79
2023-05-07T05:01:03.231Z,93.25
2023-05-07T05:02:03.153Z,93.45
2023-05-07T05:03:03.149Z,93.55
2023-05-07T05:04:03.228Z,93.71
2023-05-07T05:05:03.028Z,94.23
2023-05-07T05:06:02.979Z,93.92
2023-05-07T05:07:03.087Z,93.20
2023-05-07T05:08:02.930Z,93.04
2023-05-07T05:09:02.887Z,92.94
2023-05-07T05:10:02.912Z,92.74
2023-05-07T05:11:02.850Z,93.10
2023-05-07T05:12:02.787Z,92.90
2023-05-07T05:13:02.771Z,92.90
2023-05-07T05:14:02.728Z,92.94
2023-05-07T05:15:02.686Z,92.94
2023-05-07T05:16:02.719Z,92.94
2023-05-07T05:17:02.697Z,93.04
2023-05-07T05:18:02.630Z,92.22
2023-05-07T05:19:02.563Z,92.83
2023-05-07T05:20:02.517Z,92.74
2023-05-07T05:21:02.478Z,92.38
2023-05-07T05:22:02.518Z,92.28
2023-05-07T05:23:02.460Z,92.18
2023-05-07T05:24:02.380Z,92.08
2023-05-07T05:25:02.383Z,92.08
2023-05-07T05:26:02.332Z,91.52
2023-05-07T05:27:02.290Z,91.16
2023-05-07T05:28:04.317Z,91.83
2023-05-07T05:29:02.214Z,91.26
2023-05-07T05:30:02.191Z,91.87
2023-05-07T05:31:02.210Z,91.67
2023-05-07T05:32:02.193Z,91.87
2023-05-07T05:33:02.162Z,91.87
2023-05-07T05:34:02.128Z,91.31
2023-05-07T05:35:02.019Z,91.73
2023-05-07T05:36:01.990Z,91.31
2023-05-07T05:37:01.958Z,91.22
2023-05-07T05:38:01.910Z,91.01
2023-05-07T05:39:01.880Z,91.16
2023-05-07T05:40:01.948Z,91.77
2023-05-07T05:41:01.819Z,91.26
2023-05-07T05:42:01.786Z,91.46
2023-05-07T05:43:01.752Z,91.73
2023-05-07T05:44:01.754Z,91.22
2023-05-07T05:45:01.674Z,91.11
2023-05-07T05:46:01.877Z,91.01
2023-05-07T05:47:01.644Z,89.98
2023-05-07T05:48:01.681Z,90.39
2023-05-07T05:49:01.719Z,90.30
2023-05-07T05:50:01.525Z,90.50
2023-05-07T05:51:01.479Z,90.09
2023-05-07T05:52:01.513Z,90.19
2023-05-07T05:53:01.456Z,89.68
2023-05-07T05:54:01.379Z,89.78
2023-05-07T05:55:01.350Z,90.15
2023-05-07T05:56:01.310Z,89.74
2023-05-07T05:57:01.297Z,89.47
2023-05-07T05:58:01.305Z,89.94
2023-05-07T05:59:01.300Z,89.33
2023-05-07T06:00:01.174Z,89.94
2023-05-07T06:01:01.156Z,89.84
2023-05-07T06:02:01.164Z,88.92
2023-05-07T06:03:01.125Z,89.70
2023-05-07T06:04:01.114Z,89.23
2023-05-07T06:05:01.050Z,89.09
2023-05-07T06:06:01.014Z,89.09
2023-05-07T06:07:00.954Z,88.74
2023-05-07T06:08:00.912Z,88.84
2023-05-07T06:09:00.884Z,88.84
2023-05-07T06:10:00.904Z,88.02
2023-05-07T06:11:00.857Z,87.76
2023-05-07T06:12:01.128Z,88.02
2023-05-07T06:13:00.772Z,87.92
2023-05-07T06:14:00.725Z,88.02
2023-05-07T06:15:00.677Z,88.02
2023-05-07T06:16:00.706Z,87.26
2023-05-07T06:17:00.753Z,87.06
2023-05-07T06:18:00.700Z,86.91
2023-05-07T06:19:00.603Z,86.16
2023-05-07T06:20:00.523Z,85.04
2023-05-07T06:21:00.501Z,84.67
2023-05-07T06:22:00.524Z,85.08
2023-05-07T06:23:00.416Z,85.65
2023-05-07T06:24:00.398Z,84.49
2023-05-07T06:25:00.356Z,83.98
2023-05-07T06:26:00.318Z,84.41
2023-05-07T06:27:00.378Z,82.17
2023-05-07T06:28:00.547Z,82.75
2023-05-07T06:29:00.234Z,83.12
2023-05-07T06:30:00.321Z,83.23
2023-05-07T06:31:00.160Z,84.00
2023-05-07T06:32:00.224Z,82.07
2023-05-07T06:33:00.155Z,82.37
2023-05-07T06:34:00.177Z,81.35
2023-05-07T06:35:00.038Z,82.17
2023-05-07T06:35:59.998Z,81.62
2023-05-07T06:36:59.989Z,81.17
2023-05-07T06:37:59.943Z,80.56
2023-05-07T06:38:59.980Z,79.00
2023-05-07T06:40:00.303Z,79.20
2023-05-07T06:40:59.900Z,78.69
2023-05-07T06:41:59.819Z,79.47
2023-05-07T06:42:59.825Z,78.72
2023-05-07T06:43:59.754Z,77.26
2023-05-07T06:44:59.784Z,76.61
2023-05-07T06:45:59.707Z,76.21
2023-05-07T06:46:59.662Z,76.72
2023-05-07T06:47:59.685Z,76.41
2023-05-07T06:48:59.598Z,76.61
2023-05-07T06:49:59.637Z,77.06
2023-05-07T06:50:59.556Z,76.68
2023-05-07T06:51:59.516Z,76.68
2023-05-07T06:52:59.472Z,78.17
2023-05-07T06:53:59.450Z,77.47
2023-05-07T06:54:59.488Z,76.55
2023-05-07T06:55:59.402Z,77.26
2023-05-07T06:56:59.355Z,77.16
2023-05-07T06:57:59.327Z,76.65
2023-05-07T06:58:59.306Z,77.87
2023-05-07T06:59:59.368Z,77.60
2023-05-07T07:00:59.290Z,77.87
2023-05-07T07:01:59.388Z,77.77
2023-05-07T07:02:59.237Z,77.47
2023-05-07T07:03:59.140Z,77.02
2023-05-07T07:04:59.160Z,77.02
2023-05-07T07:05:59.073Z,76.55
2023-05-07T07:06:59.093Z,76.79
2023-05-07T07:07:59.019Z,78.28
2023-05-07T07:08:58.994Z,78.89
2023-05-07T07:09:59.168Z,79.20
2023-05-07T07:10:58.927Z,79.77
2023-05-07T07:11:58.890Z,78.48
2023-05-07T07:12:58.978Z,78.28
2023-05-07T07:13:58.829Z,77.77
2023-05-07T07:14:58.804Z,77.97
2023-05-07T07:15:58.792Z,78.17
2023-05-07T07:16:58.770Z,76.86
2023-05-07T07:17:58.792Z,77.36
2023-05-07T07:18:58.722Z,76.99
2023-05-07T07:19:58.637Z,77.44
2023-05-07T07:20:58.630Z,78.39
2023-05-07T07:21:59.449Z,78.22
2023-05-07T07:22:58.553Z,79.64
2023-05-07T07:23:58.527Z,79.95
2023-05-07T07:24:58.567Z,80.02
2023-05-07T07:25:58.528Z,79.61
2023-05-07T07:26:58.421Z,78.28
2023-05-07T07:27:58.399Z,79.00
2023-05-07T07:28:58.371Z,79.24
2023-05-07T07:29:58.331Z,78.97
2023-05-07T07:30:58.393Z,79.79
2023-05-07T07:31:58.341Z,80.05
2023-05-07T07:32:58.288Z,80.56
2023-05-07T07:33:58.275Z,80.22
2023-05-07T07:34:58.178Z,79.10
2023-05-07T07:35:58.163Z,78.59
2023-05-07T07:36:58.172Z,79.24
2023-05-07T07:38:01.843Z,79.14
2023-05-07T07:38:58.055Z,79.95
2023-05-07T07:39:58.057Z,78.89
2023-05-07T07:40:58.955Z,78.80
2023-05-07T07:41:57.957Z,78.25
2023-05-07T07:42:57.987Z,77.98
2023-05-07T07:43:57.913Z,78.08
2023-05-07T07:44:57.864Z,78.35
2023-05-07T07:45:57.884Z,78.66
2023-05-07T07:46:57.833Z,77.91
2023-05-07T07:47:57.878Z,76.79
2023-05-07T07:48:57.751Z,76.75
2023-05-07T07:49:57.710Z,77.02
2023-05-07T07:50:57.686Z,76.58
2023-05-07T07:51:57.663Z,75.12
2023-05-07T07:52:57.620Z,75.49
2023-05-07T07:53:57.652Z,73.87
2023-05-07T07:54:57.590Z,73.36
2023-05-07T07:55:59.504Z,74.04
2023-05-07T07:56:57.499Z,72.72
2023-05-07T07:57:57.469Z,72.41
2023-05-07T07:58:57.438Z,73.43
2023-05-07T07:59:57.459Z,72.92
2023-05-07T08:00:57.397Z,72.52
2023-05-07T08:01:57.370Z,72.11
2023-05-07T08:02:57.492Z,72.01
2023-05-07T08:03:57.377Z,73.60
2023-05-07T08:04:57.262Z,73.29
2023-05-07T08:05:57.340Z,73.76
2023-05-07T08:06:57.212Z,72.24
2023-05-07T08:07:57.173Z,71.70
2023-05-07T08:08:57.219Z,73.43
2023-05-07T08:10:01.853Z,73.09
2023-05-07T08:10:57.086Z,72.96
2023-05-07T08:11:57.262Z,72.14
2023-05-07T08:12:57.059Z,71.40
2023-05-07T08:13:57.001Z,71.60
2023-05-07T08:14:57.030Z,71.20
2023-05-07T08:15:56.976Z,70.89
2023-05-07T08:16:56.939Z,71.00
2023-05-07T08:17:57.079Z,71.13
2023-05-07T08:18:56.855Z,70.32
2023-05-07T08:19:56.870Z,70.86
2023-05-07T08:20:56.804Z,71.60
2023-05-07T08:21:56.790Z,71.77
2023-05-07T08:22:56.822Z,71.91
2023-05-07T08:23:56.790Z,71.91
2023-05-07T08:24:56.684Z,72.04
2023-05-07T08:25:56.646Z,73.06
2023-05-07T08:26:56.619Z,73.33
2023-05-07T08:27:56.602Z,73.43
2023-05-07T08:28:56.578Z,71.40
2023-05-07T08:29:56.596Z,72.17
2023-05-07T08:30:56.554Z,72.65
2023-05-07T08:31:56.494Z,72.11
2023-05-07T08:32:56.490Z,71.47
2023-05-07T08:33:56.423Z,69.61
2023-05-07T08:34:56.490Z,69.41
2023-05-07T08:35:56.369Z,69.58
2023-05-07T08:36:56.366Z,69.24
2023-05-07T08:37:56.308Z,68.63
2023-05-07T08:38:56.268Z,67.80
2023-05-07T08:39:56.253Z,67.06
2023-05-07T08:40:56.339Z,68.30
2023-05-07T08:41:56.210Z,68.17
2023-05-07T08:42:56.166Z,68.04
2023-05-07T08:43:56.131Z,67.02
2023-05-07T08:44:56.121Z,66.49
2023-05-07T08:45:56.211Z,65.38
2023-05-07T08:46:56.125Z,65.38
2023-05-07T08:47:56.025Z,66.02
2023-05-07T08:48:55.983Z,66.32
2023-05-07T08:49:55.963Z,66.32
2023-05-07T08:50:56.027Z,66.45
2023-05-07T08:51:55.903Z,65.64
2023-05-07T08:52:55.934Z,66.05
2023-05-07T08:53:55.873Z,66.12
2023-05-07T08:54:55.825Z,66.75
2023-05-07T08:55:55.821Z,66.58
2023-05-07T08:56:55.762Z,67.19
2023-05-07T08:57:55.737Z,66.96
2023-05-07T08:58:55.758Z,67.16
2023-05-07T08:59:55.757Z,66.55
2023-05-07T09:00:55.650Z,67.46
2023-05-07T09:01:55.722Z,66.93
2023-05-07T09:02:55.665Z,66.93
2023-05-07T09:03:55.660Z,67.02
2023-05-07T09:04:55.677Z,67.40
2023-05-07T09:05:55.570Z,65.41
2023-05-07T09:06:55.488Z,65.98
2023-05-07T09:07:58.244Z,67.52
2023-05-07T09:08:55.498Z,67.19
2023-05-07T09:09:55.487Z,67.29
2023-05-07T09:10:55.369Z,68.00
2023-05-07T09:11:55.400Z,67.90
2023-05-07T09:12:55.402Z,68.60
2023-05-07T09:13:55.292Z,67.60
2023-05-07T09:14:55.309Z,67.69
2023-05-07T09:15:55.244Z,67.76
2023-05-07T09:16:55.207Z,67.43
2023-05-07T09:17:55.235Z,66.69
2023-05-07T09:18:55.174Z,65.55
2023-05-07T09:19:55.226Z,65.25
2023-05-07T09:20:55.089Z,65.38
2023-05-07T09:21:55.080Z,65.01
2023-05-07T09:22:55.044Z,65.75
2023-05-07T09:23:55.009Z,66.38
2023-05-07T09:24:55.032Z,66.89
2023-05-07T09:25:54.960Z,67.49
2023-05-07T09:26:54.925Z,65.95
2023-05-07T09:27:54.911Z,66.15
2023-05-07T09:28:54.904Z,65.54
2023-05-07T09:29:54.845Z,65.01
2023-05-07T09:30:54.890Z,66.35
2023-05-07T09:31:54.844Z,66.22
2023-05-07T09:32:54.835Z,65.64
2023-05-07T09:33:54.728Z,66.55
2023-05-07T09:34:54.718Z,66.55
2023-05-07T09:35:54.680Z,66.02
2023-05-07T09:36:54.708Z,66.69
2023-05-07T09:37:54.658Z,65.18
2023-05-07T09:38:54.603Z,64.98
2023-05-07T09:39:54.586Z,65.01
2023-05-07T09:40:54.592Z,65.01
2023-05-07T09:41:54.587Z,65.92
2023-05-07T09:42:54.485Z,65.48
2023-05-07T09:43:54.463Z,65.45
2023-05-07T09:44:54.432Z,64.95
2023-05-07T09:45:54.524Z,65.22
2023-05-07T09:46:54.370Z,65.19
2023-05-07T09:47:54.429Z,65.39
2023-05-07T09:48:54.336Z,62.87
2023-05-07T09:49:54.287Z,64.45
2023-05-07T09:50:54.277Z,62.94
2023-05-07T09:51:54.301Z,63.04
2023-05-07T09:52:54.213Z,62.91
2023-05-07T09:53:54.241Z,62.04
2023-05-07T09:54:54.257Z,63.14
2023-05-07T09:55:54.165Z,63.78
2023-05-07T09:56:54.139Z,64.48
2023-05-07T09:57:54.087Z,64.65
2023-05-07T09:58:54.054Z,64.25
2023-05-07T09:59:54.076Z,62.94
2023-05-07T10:00:54.024Z,63.04
2023-05-07T10:01:53.989Z,63.65
2023-05-07T10:02:54.161Z,64.28
2023-05-07T10:03:54.019Z,64.89
2023-05-07T10:04:53.919Z,64.28
2023-05-07T10:05:53.915Z,64.25
2023-05-07T10:06:53.853Z,62.41
2023-05-07T10:07:53.855Z,63.11
2023-05-07T10:08:55.898Z,62.98
2023-05-07T10:09:53.876Z,62.98
2023-05-07T10:10:53.861Z,62.98
2023-05-07T10:11:53.760Z,62.85
2023-05-07T10:12:53.715Z,61.67
2023-05-07T10:13:53.667Z,62.81
2023-05-07T10:14:53.620Z,62.44
2023-05-07T10:15:53.597Z,62.94
2023-05-07T10:16:53.574Z,63.24
2023-05-07T10:17:53.704Z,63.71
2023-05-07T10:18:53.522Z,62.88
2023-05-07T10:19:53.488Z,62.27
2023-05-07T10:20:53.457Z,61.34
2023-05-07T10:21:53.438Z,61.41
2023-05-07T10:22:53.426Z,61.91
2023-05-07T10:23:53.427Z,61.51
2023-05-07T10:24:53.353Z,60.61
2023-05-07T10:25:59.339Z,60.71
2023-05-07T10:26:53.360Z,60.61
2023-05-07T10:27:53.277Z,60.64
2023-05-07T10:28:53.251Z,60.60
2023-05-07T10:29:53.305Z,61.07
2023-05-07T10:30:53.274Z,61.87
2023-05-07T10:31:53.184Z,60.53
2023-05-07T10:32:53.219Z,60.06
2023-05-07T10:33:53.125Z,61.40
2023-05-07T10:34:53.102Z,60.69
2023-05-07T10:35:53.134Z,60.77
2023-05-07T10:36:53.060Z,60.84
2023-05-07T10:37:53.023Z,61.77
2023-05-07T10:38:52.994Z,61.60
2023-05-07T10:39:53.014Z,62.37
2023-05-07T10:40:52.940Z,62.94
2023-05-07T10:41:52.983Z,63.07
2023-05-07T10:42:52.891Z,63.00
2023-05-07T10:43:52.909Z,63.10
2023-05-07T10:44:52.841Z,62.80
2023-05-07T10:45:52.829Z,63.07
2023-05-07T10:46:52.794Z,62.57
2023-05-07T10:47:52.870Z,63.10
2023-05-07T10:48:52.767Z,63.67
2023-05-07T10:49:52.708Z,63.07
2023-05-07T10:50:52.789Z,63.14
2023-05-07T10:51:52.670Z,62.10
2023-05-07T10:52:52.634Z,62.10
2023-05-07T10:53:52.682Z,62.91
2023-05-07T10:54:52.583Z,63.08
2023-05-07T10:55:52.629Z,62.18
2023-05-07T10:56:52.521Z,62.05
2023-05-07T10:57:52.496Z,62.08
2023-05-07T10:58:52.522Z,61.38
2023-05-07T10:59:53.101Z,59.47
2023-05-07T11:00:52.416Z,59.45
2023-05-07T11:01:52.422Z,58.84
2023-05-07T11:02:52.392Z,59.34
2023-05-07T11:03:52.383Z,58.72
2023-05-07T11:04:52.350Z,57.74
2023-05-07T11:05:52.353Z,57.87
2023-05-07T11:06:52.259Z,58.47
2023-05-07T11:07:52.250Z,58.47
2023-05-07T11:08:52.207Z,59.20
2023-05-07T11:09:52.199Z,59.43
2023-05-07T11:10:52.191Z,59.41
2023-05-07T11:11:52.375Z,59.27
2023-05-07T11:12:52.134Z,59.38
2023-05-07T11:13:52.105Z,59.05
2023-05-07T11:14:52.052Z,58.57
2023-05-07T11:15:52.059Z,58.24
2023-05-07T11:16:52.024Z,58.57
2023-05-07T11:17:52.074Z,58.37
2023-05-07T11:18:51.952Z,59.38
2023-05-07T11:19:51.916Z,59.60
2023-05-07T11:20:51.912Z,60.51
2023-05-07T11:21:51.891Z,60.47
2023-05-07T11:22:52.301Z,61.50
2023-05-07T11:23:51.900Z,61.37
2023-05-07T11:24:51.803Z,61.77
2023-05-07T11:25:51.781Z,60.89
2023-05-07T11:26:51.765Z,62.18
2023-05-07T11:27:51.754Z,61.67
2023-05-07T11:28:51.689Z,61.34
2023-05-07T11:29:51.708Z,60.33
2023-05-07T11:30:51.643Z,61.24
2023-05-07T11:31:51.673Z,59.66
2023-05-07T11:32:51.610Z,61.30
2023-05-07T11:33:51.666Z,60.55
2023-05-07T11:34:51.611Z,61.76
2023-05-07T11:35:51.520Z,61.69
2023-05-07T11:36:51.486Z,61.46
2023-05-07T11:37:51.458Z,62.19
2023-05-07T11:38:51.441Z,61.39
2023-05-07T11:39:51.493Z,61.36
2023-05-07T11:40:51.421Z,60.72
2023-05-07T11:41:53.345Z,60.83
2023-05-07T11:42:51.917Z,59.92
2023-05-07T11:43:51.359Z,59.99
2023-05-07T11:44:51.274Z,61.07
2023-05-07T11:45:51.384Z,59.76
2023-05-07T11:46:51.234Z,59.46
2023-05-07T11:47:51.244Z,59.53
2023-05-07T11:48:51.174Z,58.60
2023-05-07T11:49:52.138Z,58.07
2023-05-07T11:50:51.112Z,57.46
2023-05-07T11:51:51.959Z,58.44
2023-05-07T11:52:51.082Z,57.64
2023-05-07T11:53:51.044Z,56.84
2023-05-07T11:54:51.006Z,56.74
2023-05-07T11:55:50.970Z,56.96
2023-05-07T11:56:50.977Z,58.14
2023-05-07T11:57:50.987Z,58.64
2023-05-07T11:58:50.904Z,57.91
2023-05-07T11:59:50.875Z,57.28
2023-05-07T12:00:50.851Z,56.78
2023-05-07T12:01:50.883Z,56.34
2023-05-07T12:02:50.926Z,57.44
2023-05-07T12:03:50.935Z,58.81
2023-05-07T12:04:50.860Z,57.61
2023-05-07T12:05:50.801Z,56.21
2023-05-07T12:06:50.697Z,56.41
2023-05-07T12:07:50.684Z,57.44
2023-05-07T12:08:50.649Z,55.93
2023-05-07T12:09:50.685Z,57.26
2023-05-07T12:10:50.637Z,57.87
2023-05-07T12:11:50.577Z,58.50
2023-05-07T12:12:50.621Z,59.30
2023-05-07T12:13:50.514Z,58.29
2023-05-07T12:14:50.539Z,58.70
2023-05-07T12:15:50.524Z,58.17
2023-05-07T12:16:50.505Z,57.77
2023-05-07T12:17:50.437Z,57.26
2023-05-07T12:18:50.391Z,58.70
2023-05-07T12:19:50.349Z,58.93
2023-05-07T12:20:50.326Z,58.53
2023-05-07T12:21:50.359Z,59.26
2023-05-07T12:22:50.300Z,59.96
2023-05-07T12:23:50.254Z,59.86
2023-05-07T12:24:50.290Z,59.86
2023-05-07T12:25:50.200Z,59.56
2023-05-07T12:26:50.213Z,59.28
2023-05-07T12:27:52.629Z,59.92
2023-05-07T12:28:50.161Z,60.05
2023-05-07T12:29:50.098Z,60.65
2023-05-07T12:30:50.081Z,60.98
2023-05-07T12:31:50.112Z,60.65
2023-05-07T12:32:50.126Z,60.96
2023-05-07T12:33:50.092Z,61.73
2023-05-07T12:34:50.038Z,59.99
2023-05-07T12:35:49.951Z,59.86
2023-05-07T12:36:49.937Z,59.36
2023-05-07T12:37:49.888Z,59.46
2023-05-07T12:38:49.924Z,60.06
2023-05-07T12:39:49.835Z,59.46
2023-05-07T12:40:49.824Z,60.06
2023-05-07T12:41:50.594Z,59.79
2023-05-07T12:42:49.756Z,59.72
2023-05-07T12:43:49.784Z,59.52
2023-05-07T12:44:49.694Z,60.12
2023-05-07T12:45:49.670Z,60.12
2023-05-07T12:46:49.792Z,59.89
2023-05-07T12:47:49.644Z,59.36
2023-05-07T12:48:49.640Z,59.16
2023-05-07T12:49:49.674Z,58.88
2023-05-07T12:50:49.535Z,58.58
2023-05-07T12:51:49.505Z,59.42